Albuquerque, New Mexico
Current Conditions -  °F | °C
As of 1:52 PM on Friday 19 Dec 2014 (Local Time) from KABQ Reporting Station
Few Clouds Few Clouds  
Wind Chill: 36°   Ceiling: Unl
Heat Index: 44°   Visibility: 10mi
Dew Point: 24°   Wind: 21mph
Humidity: 45%   Direction: 320°NW
Pressure: 30.18"   Gusts: 28mph
Location:  35.08°N, 106.64°W
Report Text: KABQ 192052Z 32018G24KT 10SM FEW045 07/M04 A3018 RMK AO2 SLP214 MTNS OBSC NE T00671044 56018
Loading
Personal Weather Stations






























Interactive Weather Map New forecast layout! Learn more

10-Day Weather Forecast

Advertisements
Track Severe Weather on mobile